Time;durP1;ratioP1;P1;durP2;ratioP2;P2;SDS_P1;SDS_P2;PMS_P1;PMS_P2;Temp;Humidity;BMP_temperature;BMP_pressure;BME280_temperature;BME280_humidity;BME280_pressure;Samples;Min_cycle;Max_cycle;Signal;HPM_P1;HPM_P2
2022/06/02 00:00:09;;;;;;;9.00;5.40;;;;;;;12.09;95.19;100301.27;712846;1180;115425;-77
2022/06/02 00:15:39;;;;;;;9.80;6.00;;;;;;;11.93;95.61;100290.48;712507;1177;115781;-77
2022/06/02 00:31:20;;;;;;;10.90;6.10;;;;;;;11.95;95.48;100286.77;712579;1177;115360;-76
2022/06/02 00:46:40;;;;;;;10.35;6.35;;;;;;;11.80;95.20;100291.64;712304;1177;115086;-77
2022/06/02 01:01:43;;;;;;;14.75;9.35;;;;;;;11.57;95.23;100320.03;712381;1178;115097;-76
2022/06/02 01:16:57;;;;;;;16.90;7.90;;;;;;;11.03;96.85;100298.64;712381;1178;115449;-75
2022/06/02 01:32:04;;;;;;;10.53;6.43;;;;;;;11.02;97.26;100310.14;712648;1177;115854;-75
2022/06/02 01:47:16;;;;;;;19.27;8.37;;;;;;;11.00;97.39;100314.68;712559;1179;115813;-75
2022/06/02 02:02:32;;;;;;;8.90;5.80;;;;;;;11.24;98.50;100323.95;712428;1177;115882;-75
2022/06/02 02:18:00;;;;;;;13.30;6.97;;;;;;;11.21;98.39;100324.23;712560;1178;115712;-76
2022/06/02 02:33:40;;;;;;;10.90;6.05;;;;;;;11.38;98.45;100341.09;712411;1179;116090;-75
2022/06/02 02:48:45;;;;;;;9.43;5.80;;;;;;;11.61;99.09;100331.95;712384;1177;115202;-76
2022/06/02 03:04:07;;;;;;;10.60;6.30;;;;;;;11.66;98.55;100321.00;712429;1177;114225;-75
2022/06/02 03:19:19;;;;;;;13.67;7.63;;;;;;;11.58;98.49;100326.14;713092;1179;115980;-75
2022/06/02 03:34:59;;;;;;;10.57;6.93;;;;;;;11.66;99.21;100355.97;712560;1177;115344;-75
2022/06/02 03:50:23;;;;;;;12.85;8.03;;;;;;;12.11;99.16;100380.00;712892;1177;115408;-75
2022/06/02 04:05:25;;;;;;;10.13;7.13;;;;;;;12.37;99.29;100385.45;713006;1177;114758;-75
2022/06/02 04:20:45;;;;;;;11.60;7.80;;;;;;;12.56;99.02;100378.45;713184;1177;115782;-75
2022/06/02 04:36:15;;;;;;;13.28;7.18;;;;;;;12.71;99.15;100391.94;714040;1179;115964;-76
2022/06/02 04:51:32;;;;;;;9.85;7.00;;;;;;;12.85;99.36;100399.34;713689;1178;115853;-79
2022/06/02 05:07:01;;;;;;;10.77;6.80;;;;;;;13.37;98.83;100406.67;714772;1177;115753;-80
2022/06/02 05:22:15;;;;;;;10.17;6.53;;;;;;;13.65;98.68;100417.13;712577;1178;115405;-80
2022/06/02 05:37:44;;;;;;;16.53;11.40;;;;;;;14.58;96.85;100442.13;712715;1177;115829;-75
2022/06/02 05:53:24;;;;;;;11.20;7.00;;;;;;;14.88;96.25;100469.04;712320;1177;115840;-74
2022/06/02 06:08:29;;;;;;;10.50;6.27;;;;;;;14.96;95.46;100476.98;712761;1179;115700;-74
2022/06/02 06:23:57;;;;;;;8.80;6.60;;;;;;;15.34;94.30;100466.86;712922;1177;114449;-74
2022/06/02 06:39:15;;;;;;;8.70;6.10;;;;;;;15.34;94.28;100488.01;713235;1180;115009;-74
2022/06/02 06:54:51;;;;;;;13.75;6.75;;;;;;;15.03;95.17;100522.08;712791;1178;115191;-76
2022/06/02 07:10:08;;;;;;;11.48;7.73;;;;;;;15.08;97.66;100519.80;713013;1179;115641;-78
2022/06/02 07:25:34;;;;;;;7.75;5.83;;;;;;;15.02;97.34;100546.84;712635;1180;115683;-74
2022/06/02 07:40:45;;;;;;;7.90;6.40;;;;;;;15.03;98.30;100551.14;712587;1177;115281;-74
2022/06/02 07:55:53;;;;;;;7.90;7.08;;;;;;;14.95;98.85;100562.48;713310;1177;114931;-74
2022/06/02 08:11:34;;;;;;;10.90;7.55;;;;;;;14.93;100.00;100588.25;712755;1178;115573;-77
2022/06/02 08:27:32;;;;;;;24.85;16.55;;;;;;;15.47;100.00;100583.53;715809;1177;115904;-77
2022/06/02 08:43:13;;;;;;;6.30;3.83;;;;;;;15.96;97.65;100603.20;713357;1177;114992;-76
2022/06/02 08:58:35;;;;;;;4.30;2.87;;;;;;;16.66;96.39;100603.73;713690;1178;115405;-76
2022/06/02 09:13:50;;;;;;;3.97;2.80;;;;;;;18.61;92.77;100610.08;713324;1180;114312;-76
2022/06/02 09:29:16;;;;;;;2.75;2.20;;;;;;;19.39;88.07;100617.75;713634;1179;115673;-75
2022/06/02 09:44:34;;;;;;;3.55;2.23;;;;;;;20.24;81.76;100625.25;713898;1177;115303;-75
2022/06/02 09:59:41;;;;;;;5.80;3.23;;;;;;;20.08;77.35;100623.67;714219;1177;115630;-75
2022/06/02 10:15:21;;;;;;;5.80;3.70;;;;;;;19.99;73.92;100628.28;712801;1178;114672;-75
2022/06/02 10:31:14;;;;;;;3.63;2.80;;;;;;;20.61;71.65;100634.81;712963;1178;114432;-76
2022/06/02 10:46:57;;;;;;;6.13;2.55;;;;;;;20.78;69.91;100626.55;712495;1177;115276;-75
2022/06/02 11:02:08;;;;;;;3.27;2.70;;;;;;;20.67;68.06;100635.06;712493;1178;114876;-78
2022/06/02 11:17:38;;;;;;;3.43;3.03;;;;;;;21.34;67.31;100630.15;712473;1177;115523;-77
2022/06/02 11:32:44;;;;;;;3.20;2.80;;;;;;;22.08;63.03;100634.75;713905;1178;114499;-79
2022/06/02 11:48:05;;;;;;;3.60;2.50;;;;;;;22.53;63.34;100628.05;714331;1177;114293;-71
2022/06/02 12:03:46;;;;;;;3.88;2.28;;;;;;;22.27;62.41;100629.63;714170;1177;115644;-69
2022/06/02 12:19:25;;;;;;;3.40;2.60;;;;;;;22.40;61.90;100635.02;713876;1179;115121;-69
2022/06/02 12:34:54;;;;;;;;;;;;;;;22.13;58.01;100650.16;713478;1178;115276;-69
2022/06/02 12:50:18;;;;;;;3.13;2.63;;;;;;;21.49;61.46;100683.41;713561;1177;101623;-71
2022/06/02 13:05:24;;;;;;;2.83;2.40;;;;;;;21.50;62.28;100693.88;713323;1179;116183;-71
2022/06/02 13:20:34;;;;;;;3.50;1.80;;;;;;;21.89;60.64;100705.77;713424;1178;115966;-70
2022/06/02 13:36:14;;;;;;;1.38;1.05;;;;;;;20.91;61.40;100764.47;713521;1178;115990;-69
2022/06/02 13:51:16;;;;;;;1.90;1.05;;;;;;;19.51;64.72;100798.20;713828;1180;115648;-71
2022/06/02 14:06:24;;;;;;;3.78;1.40;;;;;;;18.28;68.17;100824.63;713859;1180;115744;-70
2022/06/02 14:21:48;;;;;;;2.97;2.17;;;;;;;19.34;71.29;100835.58;714194;1178;114250;-70
2022/06/02 14:37:18;;;;;;;1.73;1.40;;;;;;;19.30;73.25;100850.25;714366;1178;115775;-70
2022/06/02 14:52:31;;;;;;;;;;;;;;;21.53;73.13;100858.13;715340;1179;115858;-70
2022/06/02 15:07:51;;;;;;;2.53;1.90;;;;;;;21.71;69.74;100846.98;713974;1179;101922;-72
2022/06/02 15:23:18;;;;;;;3.37;2.20;;;;;;;22.15;67.03;100823.63;713504;1180;116502;-73
2022/06/02 15:38:46;;;;;;;3.45;2.00;;;;;;;21.87;66.33;100822.66;713754;1180;115295;-69
2022/06/02 15:54:36;;;;;;;3.33;3.00;;;;;;;21.37;64.93;100832.56;714085;1179;116026;-69
2022/06/02 16:26:15;;;;;;;9.30;3.95;;;;;;;20.66;65.76;100842.11;714598;1177;116040;-72
2022/06/02 16:41:21;;;;;;;5.48;3.05;;;;;;;20.66;65.42;100844.78;713670;1180;115721;-72
2022/06/02 16:56:35;;;;;;;8.60;5.67;;;;;;;20.64;64.89;100844.16;714625;1179;115549;-72
2022/06/02 17:11:47;;;;;;;10.80;8.30;;;;;;;19.99;64.08;100845.80;715535;1180;115820;-71
2022/06/02 17:27:01;;;;;;;3.70;2.33;;;;;;;19.69;64.28;100846.58;719032;1178;115216;-70
2022/06/02 17:42:20;;;;;;;3.53;2.45;;;;;;;19.54;64.18;100843.06;713978;1177;114841;-72
2022/06/02 17:57:23;;;;;;;11.88;5.85;;;;;;;19.15;64.52;100850.21;724794;1177;114856;-71
2022/06/02 18:12:51;;;;;;;7.70;5.33;;;;;;;18.93;66.73;100847.36;714020;1178;115261;-71
2022/06/02 18:28:29;;;;;;;46.23;27.27;;;;;;;18.42;67.88;100863.73;714986;1180;115406;-71
2022/06/02 18:43:59;;;;;;;12.15;8.40;;;;;;;17.81;68.95;100871.34;715635;1177;115020;-72
2022/06/02 18:59:14;;;;;;;22.47;12.60;;;;;;;17.23;71.11;100884.62;714321;1179;114476;-74
2022/06/02 19:14:38;;;;;;;35.73;18.57;;;;;;;16.64;72.96;100900.52;714208;1177;115554;-71
2022/06/02 19:29:57;;;;;;;14.10;9.65;;;;;;;16.30;74.09;100904.85;714345;1179;115981;-73
2022/06/02 19:45:23;;;;;;;5.77;4.20;;;;;;;16.03;75.74;100910.31;716748;1180;115883;-73
2022/06/02 20:00:35;;;;;;;12.63;7.28;;;;;;;15.60;77.70;100931.31;713066;1178;114382;-71
2022/06/02 20:16:22;;;;;;;9.03;6.38;;;;;;;15.41;79.05;100938.39;713262;1179;114954;-73
2022/06/02 20:31:32;;;;;;;7.65;5.60;;;;;;;15.18;81.04;100948.59;713299;1180;114807;-72
2022/06/02 20:47:13;;;;;;;12.30;6.63;;;;;;;14.77;81.90;100953.42;713358;1177;115575;-72
2022/06/02 21:02:52;;;;;;;12.68;7.93;;;;;;;14.63;83.57;100949.41;713580;1180;114497;-73
2022/06/02 21:18:01;;;;;;;16.77;9.43;;;;;;;14.32;85.10;100962.86;712442;1179;115354;-72
2022/06/02 21:33:21;;;;;;;;;;;;;;;14.14;86.24;100966.22;714589;1179;115358;-72
2022/06/02 21:48:56;;;;;;;15.33;9.10;;;;;;;13.88;86.53;100971.25;713567;1178;101856;-71
2022/06/02 22:04:31;;;;;;;15.60;9.97;;;;;;;13.74;87.78;100982.25;712983;1178;115386;-73
2022/06/02 22:19:36;;;;;;;19.97;12.40;;;;;;;13.45;87.18;101004.96;712663;1180;115985;-72
2022/06/02 22:34:38;;;;;;;14.27;8.37;;;;;;;13.15;89.50;101003.20;732936;1177;114775;-73
2022/06/02 22:49:41;;;;;;;13.70;8.87;;;;;;;12.98;90.38;101015.20;713497;1178;115964;-72
2022/06/02 23:05:02;;;;;;;11.33;7.40;;;;;;;12.95;90.72;101026.84;713212;1170;115720;-72
2022/06/02 23:20:24;;;;;;;10.90;7.00;;;;;;;12.74;90.67;101026.06;712334;1180;115535;-71
2022/06/02 23:35:26;;;;;;;10.43;6.53;;;;;;;12.43;91.50;101021.61;712545;1178;115000;-72
2022/06/02 23:50:47;;;;;;;10.48;6.75;;;;;;;12.31;92.19;101028.73;712503;1179;114534;-72
